sensor_id;sensor_type;location;lat;lon;timestamp;P1;durP1;ratioP1;P2;durP2;ratioP2
13244;SDS011;6689;53.400;12.486;2024-03-02T00:01:41;47.75;;;29.65;;
13244;SDS011;6689;53.400;12.486;2024-03-02T00:04:08;52.65;;;30.77;;
13244;SDS011;6689;53.400;12.486;2024-03-02T00:06:36;49.03;;;29.45;;
13244;SDS011;6689;53.400;12.486;2024-03-02T00:09:03;53.13;;;30.90;;
13244;SDS011;6689;53.400;12.486;2024-03-02T00:11:34;46.65;;;29.70;;
13244;SDS011;6689;53.400;12.486;2024-03-02T00:14:02;56.20;;;31.42;;
13244;SDS011;6689;53.400;12.486;2024-03-02T00:16:32;47.08;;;28.60;;
13244;SDS011;6689;53.400;12.486;2024-03-02T00:19:02;57.90;;;31.25;;
13244;SDS011;6689;53.400;12.486;2024-03-02T00:21:30;55.00;;;31.02;;
13244;SDS011;6689;53.400;12.486;2024-03-02T00:23:58;50.60;;;29.08;;
13244;SDS011;6689;53.400;12.486;2024-03-02T00:26:27;52.45;;;30.45;;
13244;SDS011;6689;53.400;12.486;2024-03-02T00:28:55;54.53;;;31.00;;
13244;SDS011;6689;53.400;12.486;2024-03-02T00:31:23;55.28;;;30.92;;
13244;SDS011;6689;53.400;12.486;2024-03-02T00:33:51;51.05;;;28.95;;
13244;SDS011;6689;53.400;12.486;2024-03-02T00:36:24;48.28;;;30.33;;
13244;SDS011;6689;53.400;12.486;2024-03-02T00:38:53;51.10;;;29.33;;
13244;SDS011;6689;53.400;12.486;2024-03-02T00:41:22;50.15;;;29.15;;
13244;SDS011;6689;53.400;12.486;2024-03-02T00:43:54;53.97;;;29.77;;
13244;SDS011;6689;53.400;12.486;2024-03-02T00:46:24;42.47;;;26.35;;
13244;SDS011;6689;53.400;12.486;2024-03-02T00:48:55;44.28;;;27.75;;
13244;SDS011;6689;53.400;12.486;2024-03-02T00:51:24;46.33;;;26.45;;
13244;SDS011;6689;53.400;12.486;2024-03-02T00:53:53;43.03;;;26.60;;
13244;SDS011;6689;53.400;12.486;2024-03-02T00:56:22;44.30;;;26.77;;
13244;SDS011;6689;53.400;12.486;2024-03-02T00:58:49;47.95;;;25.65;;
13244;SDS011;6689;53.400;12.486;2024-03-02T01:01:17;46.65;;;27.13;;
13244;SDS011;6689;53.400;12.486;2024-03-02T01:03:46;54.17;;;30.33;;
13244;SDS011;6689;53.400;12.486;2024-03-02T01:06:14;50.33;;;28.63;;
13244;SDS011;6689;53.400;12.486;2024-03-02T01:08:42;45.25;;;27.58;;
13244;SDS011;6689;53.400;12.486;2024-03-02T01:11:11;61.60;;;33.00;;
13244;SDS011;6689;53.400;12.486;2024-03-02T01:13:39;60.97;;;32.03;;
13244;SDS011;6689;53.400;12.486;2024-03-02T01:16:06;56.63;;;32.20;;
13244;SDS011;6689;53.400;12.486;2024-03-02T01:18:34;59.88;;;33.92;;
13244;SDS011;6689;53.400;12.486;2024-03-02T01:21:01;67.18;;;36.20;;
13244;SDS011;6689;53.400;12.486;2024-03-02T01:23:29;63.72;;;35.10;;
13244;SDS011;6689;53.400;12.486;2024-03-02T01:25:58;63.00;;;34.33;;
13244;SDS011;6689;53.400;12.486;2024-03-02T01:28:27;72.13;;;37.28;;
13244;SDS011;6689;53.400;12.486;2024-03-02T01:30:56;62.70;;;35.05;;
13244;SDS011;6689;53.400;12.486;2024-03-02T01:33:24;77.30;;;39.63;;
13244;SDS011;6689;53.400;12.486;2024-03-02T01:35:51;76.00;;;38.38;;
13244;SDS011;6689;53.400;12.486;2024-03-02T01:38:19;72.88;;;37.92;;
13244;SDS011;6689;53.400;12.486;2024-03-02T01:40:47;74.78;;;38.55;;
13244;SDS011;6689;53.400;12.486;2024-03-02T01:43:16;88.60;;;42.63;;
13244;SDS011;6689;53.400;12.486;2024-03-02T01:45:43;92.72;;;41.92;;
13244;SDS011;6689;53.400;12.486;2024-03-02T01:48:11;76.38;;;39.65;;
13244;SDS011;6689;53.400;12.486;2024-03-02T01:50:38;68.57;;;34.92;;
13244;SDS011;6689;53.400;12.486;2024-03-02T01:53:06;61.67;;;34.78;;
13244;SDS011;6689;53.400;12.486;2024-03-02T01:55:35;61.83;;;34.65;;
13244;SDS011;6689;53.400;12.486;2024-03-02T01:58:03;65.30;;;34.55;;
13244;SDS011;6689;53.400;12.486;2024-03-02T02:00:32;64.45;;;36.45;;
13244;SDS011;6689;53.400;12.486;2024-03-02T02:02:59;69.93;;;35.15;;
13244;SDS011;6689;53.400;12.486;2024-03-02T02:05:27;76.50;;;35.70;;
13244;SDS011;6689;53.400;12.486;2024-03-02T02:07:54;69.22;;;36.83;;
13244;SDS011;6689;53.400;12.486;2024-03-02T02:10:25;80.75;;;40.55;;
13244;SDS011;6689;53.400;12.486;2024-03-02T02:12:52;86.93;;;44.03;;
13244;SDS011;6689;53.400;12.486;2024-03-02T02:15:24;81.32;;;41.53;;
13244;SDS011;6689;53.400;12.486;2024-03-02T02:17:53;88.07;;;45.70;;
13244;SDS011;6689;53.400;12.486;2024-03-02T02:20:20;88.93;;;44.50;;
13244;SDS011;6689;53.400;12.486;2024-03-02T02:23:02;83.95;;;41.72;;
13244;SDS011;6689;53.400;12.486;2024-03-02T02:25:32;87.68;;;41.60;;
13244;SDS011;6689;53.400;12.486;2024-03-02T02:28:00;73.40;;;39.85;;
13244;SDS011;6689;53.400;12.486;2024-03-02T02:30:28;82.95;;;40.65;;
13244;SDS011;6689;53.400;12.486;2024-03-02T02:32:57;79.93;;;40.63;;
13244;SDS011;6689;53.400;12.486;2024-03-02T02:35:25;83.43;;;42.40;;
13244;SDS011;6689;53.400;12.486;2024-03-02T02:37:53;83.53;;;42.78;;
13244;SDS011;6689;53.400;12.486;2024-03-02T02:40:23;87.15;;;42.35;;
13244;SDS011;6689;53.400;12.486;2024-03-02T02:42:50;77.32;;;39.25;;
13244;SDS011;6689;53.400;12.486;2024-03-02T02:45:18;80.50;;;40.28;;
13244;SDS011;6689;53.400;12.486;2024-03-02T02:47:44;76.32;;;38.67;;
13244;SDS011;6689;53.400;12.486;2024-03-02T02:50:11;74.43;;;38.95;;
13244;SDS011;6689;53.400;12.486;2024-03-02T02:52:39;69.13;;;37.13;;
13244;SDS011;6689;53.400;12.486;2024-03-02T02:55:08;65.18;;;35.95;;
13244;SDS011;6689;53.400;12.486;2024-03-02T02:57:38;73.63;;;35.03;;
13244;SDS011;6689;53.400;12.486;2024-03-02T03:00:09;63.60;;;32.42;;
13244;SDS011;6689;53.400;12.486;2024-03-02T03:02:39;58.10;;;31.63;;
13244;SDS011;6689;53.400;12.486;2024-03-02T03:05:07;57.03;;;33.10;;
13244;SDS011;6689;53.400;12.486;2024-03-02T03:07:35;61.05;;;35.15;;
13244;SDS011;6689;53.400;12.486;2024-03-02T03:10:03;60.88;;;32.95;;
13244;SDS011;6689;53.400;12.486;2024-03-02T03:12:31;72.45;;;36.22;;
13244;SDS011;6689;53.400;12.486;2024-03-02T03:15:00;73.88;;;37.65;;
13244;SDS011;6689;53.400;12.486;2024-03-02T03:17:29;76.00;;;38.78;;
13244;SDS011;6689;53.400;12.486;2024-03-02T03:19:58;66.05;;;36.75;;
13244;SDS011;6689;53.400;12.486;2024-03-02T03:22:26;75.20;;;38.28;;
13244;SDS011;6689;53.400;12.486;2024-03-02T03:24:53;72.25;;;36.95;;
13244;SDS011;6689;53.400;12.486;2024-03-02T03:27:20;66.88;;;36.45;;
13244;SDS011;6689;53.400;12.486;2024-03-02T03:29:48;77.18;;;38.38;;
13244;SDS011;6689;53.400;12.486;2024-03-02T03:32:17;76.60;;;38.63;;
13244;SDS011;6689;53.400;12.486;2024-03-02T03:34:45;74.53;;;38.50;;
13244;SDS011;6689;53.400;12.486;2024-03-02T03:37:13;84.93;;;39.10;;
13244;SDS011;6689;53.400;12.486;2024-03-02T03:39:42;76.13;;;38.05;;
13244;SDS011;6689;53.400;12.486;2024-03-02T03:42:11;75.97;;;38.15;;
13244;SDS011;6689;53.400;12.486;2024-03-02T03:44:38;79.40;;;40.55;;
13244;SDS011;6689;53.400;12.486;2024-03-02T03:47:06;91.35;;;43.83;;
13244;SDS011;6689;53.400;12.486;2024-03-02T03:49:35;93.95;;;43.13;;
13244;SDS011;6689;53.400;12.486;2024-03-02T03:52:03;88.65;;;42.53;;
13244;SDS011;6689;53.400;12.486;2024-03-02T03:54:31;87.40;;;43.47;;
13244;SDS011;6689;53.400;12.486;2024-03-02T03:56:58;90.70;;;43.65;;
13244;SDS011;6689;53.400;12.486;2024-03-02T03:59:26;82.90;;;39.60;;
13244;SDS011;6689;53.400;12.486;2024-03-02T04:01:54;91.45;;;41.70;;
13244;SDS011;6689;53.400;12.486;2024-03-02T04:04:21;92.15;;;42.58;;
13244;SDS011;6689;53.400;12.486;2024-03-02T04:06:50;82.85;;;41.22;;
13244;SDS011;6689;53.400;12.486;2024-03-02T04:09:17;74.20;;;37.67;;
13244;SDS011;6689;53.400;12.486;2024-03-02T04:11:44;73.82;;;34.50;;
13244;SDS011;6689;53.400;12.486;2024-03-02T04:14:11;71.18;;;37.55;;
13244;SDS011;6689;53.400;12.486;2024-03-02T04:16:38;84.68;;;39.05;;
13244;SDS011;6689;53.400;12.486;2024-03-02T04:19:06;73.95;;;35.80;;
13244;SDS011;6689;53.400;12.486;2024-03-02T04:21:34;64.57;;;34.92;;
13244;SDS011;6689;53.400;12.486;2024-03-02T04:24:02;57.75;;;32.40;;
13244;SDS011;6689;53.400;12.486;2024-03-02T04:26:30;77.80;;;37.97;;
13244;SDS011;6689;53.400;12.486;2024-03-02T04:28:58;81.60;;;42.00;;
13244;SDS011;6689;53.400;12.486;2024-03-02T04:31:25;108.97;;;44.45;;
13244;SDS011;6689;53.400;12.486;2024-03-02T04:33:54;88.13;;;39.75;;
13244;SDS011;6689;53.400;12.486;2024-03-02T04:36:21;93.88;;;44.55;;
13244;SDS011;6689;53.400;12.486;2024-03-02T04:38:48;116.10;;;47.35;;
13244;SDS011;6689;53.400;12.486;2024-03-02T04:41:17;114.63;;;48.13;;
13244;SDS011;6689;53.400;12.486;2024-03-02T04:43:44;105.15;;;47.40;;
13244;SDS011;6689;53.400;12.486;2024-03-02T04:46:11;92.57;;;44.47;;
13244;SDS011;6689;53.400;12.486;2024-03-02T04:48:38;92.43;;;43.72;;
13244;SDS011;6689;53.400;12.486;2024-03-02T04:51:08;88.10;;;44.50;;
13244;SDS011;6689;53.400;12.486;2024-03-02T04:53:35;78.13;;;39.20;;
13244;SDS011;6689;53.400;12.486;2024-03-02T04:56:03;71.57;;;38.03;;
13244;SDS011;6689;53.400;12.486;2024-03-02T04:59:05;78.75;;;37.22;;
13244;SDS011;6689;53.400;12.486;2024-03-02T05:01:34;71.45;;;36.95;;
13244;SDS011;6689;53.400;12.486;2024-03-02T05:04:01;78.82;;;40.55;;
13244;SDS011;6689;53.400;12.486;2024-03-02T05:06:29;83.97;;;39.97;;
13244;SDS011;6689;53.400;12.486;2024-03-02T05:08:56;100.22;;;41.90;;
13244;SDS011;6689;53.400;12.486;2024-03-02T05:11:23;77.65;;;39.90;;
13244;SDS011;6689;53.400;12.486;2024-03-02T05:14:09;74.53;;;39.45;;
13244;SDS011;6689;53.400;12.486;2024-03-02T05:16:38;86.60;;;42.92;;
13244;SDS011;6689;53.400;12.486;2024-03-02T05:19:06;87.90;;;41.45;;
13244;SDS011;6689;53.400;12.486;2024-03-02T05:21:34;104.00;;;42.03;;
13244;SDS011;6689;53.400;12.486;2024-03-02T05:24:01;72.55;;;37.80;;
13244;SDS011;6689;53.400;12.486;2024-03-02T05:26:28;67.88;;;36.15;;
13244;SDS011;6689;53.400;12.486;2024-03-02T05:28:55;73.05;;;34.22;;
13244;SDS011;6689;53.400;12.486;2024-03-02T05:31:24;67.38;;;34.03;;
13244;SDS011;6689;53.400;12.486;2024-03-02T05:33:51;66.28;;;32.15;;
13244;SDS011;6689;53.400;12.486;2024-03-02T05:36:21;69.75;;;36.53;;
13244;SDS011;6689;53.400;12.486;2024-03-02T05:38:48;73.07;;;36.60;;
13244;SDS011;6689;53.400;12.486;2024-03-02T05:41:15;73.95;;;37.80;;
13244;SDS011;6689;53.400;12.486;2024-03-02T05:43:42;73.38;;;35.35;;
13244;SDS011;6689;53.400;12.486;2024-03-02T05:46:10;76.75;;;36.88;;
13244;SDS011;6689;53.400;12.486;2024-03-02T05:48:38;79.43;;;37.42;;
13244;SDS011;6689;53.400;12.486;2024-03-02T05:51:05;67.60;;;35.92;;
13244;SDS011;6689;53.400;12.486;2024-03-02T05:53:34;66.90;;;34.80;;
13244;SDS011;6689;53.400;12.486;2024-03-02T05:56:03;67.90;;;35.55;;
13244;SDS011;6689;53.400;12.486;2024-03-02T05:58:31;71.82;;;35.03;;
13244;SDS011;6689;53.400;12.486;2024-03-02T06:01:12;75.35;;;38.70;;
13244;SDS011;6689;53.400;12.486;2024-03-02T06:03:41;77.53;;;36.95;;
13244;SDS011;6689;53.400;12.486;2024-03-02T06:06:09;80.35;;;36.85;;
13244;SDS011;6689;53.400;12.486;2024-03-02T06:08:36;65.32;;;34.95;;
13244;SDS011;6689;53.400;12.486;2024-03-02T06:11:05;83.20;;;36.65;;
13244;SDS011;6689;53.400;12.486;2024-03-02T06:13:32;69.70;;;34.38;;
13244;SDS011;6689;53.400;12.486;2024-03-02T06:15:59;68.88;;;33.53;;
13244;SDS011;6689;53.400;12.486;2024-03-02T06:18:31;67.30;;;34.90;;
13244;SDS011;6689;53.400;12.486;2024-03-02T06:21:02;71.93;;;34.90;;
13244;SDS011;6689;53.400;12.486;2024-03-02T06:23:29;63.58;;;33.88;;
13244;SDS011;6689;53.400;12.486;2024-03-02T06:25:56;83.38;;;36.22;;
13244;SDS011;6689;53.400;12.486;2024-03-02T06:28:23;65.43;;;34.42;;
13244;SDS011;6689;53.400;12.486;2024-03-02T06:30:50;68.63;;;37.08;;
13244;SDS011;6689;53.400;12.486;2024-03-02T06:33:18;79.93;;;38.83;;
13244;SDS011;6689;53.400;12.486;2024-03-02T06:35:45;104.18;;;41.88;;
13244;SDS011;6689;53.400;12.486;2024-03-02T06:38:13;114.63;;;45.95;;
13244;SDS011;6689;53.400;12.486;2024-03-02T06:40:44;96.95;;;44.97;;
13244;SDS011;6689;53.400;12.486;2024-03-02T06:43:11;97.50;;;44.67;;
13244;SDS011;6689;53.400;12.486;2024-03-02T06:45:39;85.95;;;44.00;;
13244;SDS011;6689;53.400;12.486;2024-03-02T06:48:07;93.07;;;40.95;;
13244;SDS011;6689;53.400;12.486;2024-03-02T06:50:35;77.40;;;40.08;;
13244;SDS011;6689;53.400;12.486;2024-03-02T06:53:02;91.07;;;41.95;;
13244;SDS011;6689;53.400;12.486;2024-03-02T06:55:31;84.43;;;41.58;;
13244;SDS011;6689;53.400;12.486;2024-03-02T06:57:58;91.30;;;43.72;;
13244;SDS011;6689;53.400;12.486;2024-03-02T07:00:25;79.90;;;40.72;;
13244;SDS011;6689;53.400;12.486;2024-03-02T07:02:53;89.88;;;43.22;;
13244;SDS011;6689;53.400;12.486;2024-03-02T07:05:20;105.95;;;46.53;;
13244;SDS011;6689;53.400;12.486;2024-03-02T07:07:47;89.38;;;43.35;;
13244;SDS011;6689;53.400;12.486;2024-03-02T07:10:14;90.53;;;41.88;;
13244;SDS011;6689;53.400;12.486;2024-03-02T07:12:43;102.47;;;44.63;;
13244;SDS011;6689;53.400;12.486;2024-03-02T07:15:10;85.70;;;40.92;;
13244;SDS011;6689;53.400;12.486;2024-03-02T07:18:02;84.85;;;41.83;;
13244;SDS011;6689;53.400;12.486;2024-03-02T07:20:30;81.07;;;39.25;;
13244;SDS011;6689;53.400;12.486;2024-03-02T07:22:57;85.07;;;39.75;;
13244;SDS011;6689;53.400;12.486;2024-03-02T07:25:24;89.47;;;39.85;;
13244;SDS011;6689;53.400;12.486;2024-03-02T07:27:53;84.05;;;41.22;;
13244;SDS011;6689;53.400;12.486;2024-03-02T07:30:20;86.63;;;41.92;;
13244;SDS011;6689;53.400;12.486;2024-03-02T07:32:50;88.85;;;41.50;;
13244;SDS011;6689;53.400;12.486;2024-03-02T07:35:17;93.70;;;45.13;;
13244;SDS011;6689;53.400;12.486;2024-03-02T07:37:47;93.10;;;43.90;;
13244;SDS011;6689;53.400;12.486;2024-03-02T07:40:15;83.55;;;41.85;;
13244;SDS011;6689;53.400;12.486;2024-03-02T07:42:43;85.90;;;42.53;;
13244;SDS011;6689;53.400;12.486;2024-03-02T07:45:14;93.10;;;44.20;;
13244;SDS011;6689;53.400;12.486;2024-03-02T07:47:41;92.70;;;42.72;;
13244;SDS011;6689;53.400;12.486;2024-03-02T07:50:09;88.38;;;42.30;;
13244;SDS011;6689;53.400;12.486;2024-03-02T07:52:36;102.38;;;41.45;;
13244;SDS011;6689;53.400;12.486;2024-03-02T07:55:04;98.82;;;44.38;;
13244;SDS011;6689;53.400;12.486;2024-03-02T07:57:32;88.28;;;43.70;;
13244;SDS011;6689;53.400;12.486;2024-03-02T07:59:59;95.63;;;43.75;;
13244;SDS011;6689;53.400;12.486;2024-03-02T08:02:28;84.00;;;43.70;;
13244;SDS011;6689;53.400;12.486;2024-03-02T08:04:56;84.57;;;40.92;;
13244;SDS011;6689;53.400;12.486;2024-03-02T08:07:24;84.70;;;43.88;;
13244;SDS011;6689;53.400;12.486;2024-03-02T08:09:52;88.60;;;42.03;;
13244;SDS011;6689;53.400;12.486;2024-03-02T08:12:19;80.88;;;42.67;;
13244;SDS011;6689;53.400;12.486;2024-03-02T08:14:48;88.13;;;42.85;;
13244;SDS011;6689;53.400;12.486;2024-03-02T08:17:16;85.50;;;44.13;;
13244;SDS011;6689;53.400;12.486;2024-03-02T08:19:44;88.45;;;44.50;;
13244;SDS011;6689;53.400;12.486;2024-03-02T08:22:13;92.00;;;44.90;;
13244;SDS011;6689;53.400;12.486;2024-03-02T08:24:40;89.32;;;46.55;;
13244;SDS011;6689;53.400;12.486;2024-03-02T08:27:08;101.72;;;46.05;;
13244;SDS011;6689;53.400;12.486;2024-03-02T08:29:35;109.55;;;47.10;;
13244;SDS011;6689;53.400;12.486;2024-03-02T08:32:03;101.95;;;48.13;;
13244;SDS011;6689;53.400;12.486;2024-03-02T08:34:31;103.40;;;46.97;;
13244;SDS011;6689;53.400;12.486;2024-03-02T08:37:01;103.15;;;47.95;;
13244;SDS011;6689;53.400;12.486;2024-03-02T08:39:29;98.63;;;48.72;;
13244;SDS011;6689;53.400;12.486;2024-03-02T08:41:56;112.25;;;49.17;;
13244;SDS011;6689;53.400;12.486;2024-03-02T08:44:24;111.38;;;52.08;;
13244;SDS011;6689;53.400;12.486;2024-03-02T08:46:51;111.30;;;49.92;;
13244;SDS011;6689;53.400;12.486;2024-03-02T08:49:19;114.97;;;51.20;;
13244;SDS011;6689;53.400;12.486;2024-03-02T08:51:47;127.95;;;56.35;;
13244;SDS011;6689;53.400;12.486;2024-03-02T08:54:21;129.85;;;54.33;;
13244;SDS011;6689;53.400;12.486;2024-03-02T08:56:52;126.03;;;55.17;;
13244;SDS011;6689;53.400;12.486;2024-03-02T08:59:19;134.32;;;57.00;;
13244;SDS011;6689;53.400;12.486;2024-03-02T09:01:47;128.20;;;54.30;;
13244;SDS011;6689;53.400;12.486;2024-03-02T09:04:14;120.70;;;51.40;;
13244;SDS011;6689;53.400;12.486;2024-03-02T09:06:42;114.53;;;50.95;;
13244;SDS011;6689;53.400;12.486;2024-03-02T09:09:10;103.72;;;49.08;;
13244;SDS011;6689;53.400;12.486;2024-03-02T09:11:39;113.07;;;48.03;;
13244;SDS011;6689;53.400;12.486;2024-03-02T09:14:06;107.97;;;49.42;;
13244;SDS011;6689;53.400;12.486;2024-03-02T09:16:34;113.00;;;50.47;;
13244;SDS011;6689;53.400;12.486;2024-03-02T09:19:02;117.45;;;47.95;;
13244;SDS011;6689;53.400;12.486;2024-03-02T09:21:30;113.65;;;51.42;;
13244;SDS011;6689;53.400;12.486;2024-03-02T09:23:58;102.70;;;49.95;;
13244;SDS011;6689;53.400;12.486;2024-03-02T09:26:27;107.60;;;48.35;;
13244;SDS011;6689;53.400;12.486;2024-03-02T09:28:58;102.70;;;48.60;;
13244;SDS011;6689;53.400;12.486;2024-03-02T09:31:25;109.93;;;48.40;;
13244;SDS011;6689;53.400;12.486;2024-03-02T09:33:51;113.47;;;49.65;;
13244;SDS011;6689;53.400;12.486;2024-03-02T09:36:18;105.50;;;51.58;;
13244;SDS011;6689;53.400;12.486;2024-03-02T09:38:48;118.03;;;51.92;;
13244;SDS011;6689;53.400;12.486;2024-03-02T09:41:15;112.43;;;50.78;;
13244;SDS011;6689;53.400;12.486;2024-03-02T09:43:43;113.85;;;51.38;;
13244;SDS011;6689;53.400;12.486;2024-03-02T09:46:12;111.90;;;50.75;;
13244;SDS011;6689;53.400;12.486;2024-03-02T09:48:40;106.72;;;49.20;;
13244;SDS011;6689;53.400;12.486;2024-03-02T09:51:07;104.35;;;48.28;;
13244;SDS011;6689;53.400;12.486;2024-03-02T09:53:35;90.93;;;44.47;;
13244;SDS011;6689;53.400;12.486;2024-03-02T09:56:03;87.55;;;44.88;;
13244;SDS011;6689;53.400;12.486;2024-03-02T09:58:30;94.13;;;44.70;;
13244;SDS011;6689;53.400;12.486;2024-03-02T10:00:58;92.53;;;46.30;;
13244;SDS011;6689;53.400;12.486;2024-03-02T10:03:28;87.38;;;44.08;;
13244;SDS011;6689;53.400;12.486;2024-03-02T10:08:46;85.75;;;40.10;;
13244;SDS011;6689;53.400;12.486;2024-03-02T10:11:25;88.30;;;40.95;;
13244;SDS011;6689;53.400;12.486;2024-03-02T10:14:05;81.95;;;40.08;;
13244;SDS011;6689;53.400;12.486;2024-03-02T10:16:39;87.22;;;40.97;;
13244;SDS011;6689;53.400;12.486;2024-03-02T10:19:19;79.65;;;40.67;;
13244;SDS011;6689;53.400;12.486;2024-03-02T10:21:47;82.53;;;40.38;;
13244;SDS011;6689;53.400;12.486;2024-03-02T10:24:16;74.28;;;38.33;;
13244;SDS011;6689;53.400;12.486;2024-03-02T10:26:44;73.03;;;38.42;;
13244;SDS011;6689;53.400;12.486;2024-03-02T10:29:13;73.72;;;37.65;;
13244;SDS011;6689;53.400;12.486;2024-03-02T10:31:41;71.55;;;39.03;;
13244;SDS011;6689;53.400;12.486;2024-03-02T10:34:10;76.15;;;38.30;;
13244;SDS011;6689;53.400;12.486;2024-03-02T10:36:41;67.05;;;37.42;;
13244;SDS011;6689;53.400;12.486;2024-03-02T10:39:09;69.65;;;36.70;;
13244;SDS011;6689;53.400;12.486;2024-03-02T10:41:37;66.70;;;35.35;;
13244;SDS011;6689;53.400;12.486;2024-03-02T10:44:06;64.47;;;34.70;;
13244;SDS011;6689;53.400;12.486;2024-03-02T10:46:35;59.15;;;32.92;;
13244;SDS011;6689;53.400;12.486;2024-03-02T10:49:05;56.47;;;32.08;;
13244;SDS011;6689;53.400;12.486;2024-03-02T10:51:33;58.40;;;33.25;;
13244;SDS011;6689;53.400;12.486;2024-03-02T10:54:03;58.38;;;32.22;;
13244;SDS011;6689;53.400;12.486;2024-03-02T10:56:31;52.70;;;32.25;;
13244;SDS011;6689;53.400;12.486;2024-03-02T10:59:02;52.38;;;31.00;;
13244;SDS011;6689;53.400;12.486;2024-03-02T11:01:33;51.15;;;32.20;;
13244;SDS011;6689;53.400;12.486;2024-03-02T11:04:01;60.00;;;32.70;;
13244;SDS011;6689;53.400;12.486;2024-03-02T11:06:30;52.38;;;30.50;;
13244;SDS011;6689;53.400;12.486;2024-03-02T11:09:00;47.97;;;28.30;;
13244;SDS011;6689;53.400;12.486;2024-03-02T11:11:36;47.05;;;29.83;;
13244;SDS011;6689;53.400;12.486;2024-03-02T11:14:07;48.17;;;29.15;;
13244;SDS011;6689;53.400;12.486;2024-03-02T11:16:37;48.35;;;28.88;;
13244;SDS011;6689;53.400;12.486;2024-03-02T11:19:07;45.65;;;29.23;;
13244;SDS011;6689;53.400;12.486;2024-03-02T11:21:37;43.20;;;28.25;;
13244;SDS011;6689;53.400;12.486;2024-03-02T11:27:02;46.05;;;28.38;;
13244;SDS011;6689;53.400;12.486;2024-03-02T11:29:42;42.53;;;28.10;;
13244;SDS011;6689;53.400;12.486;2024-03-02T11:32:16;47.35;;;29.55;;
13244;SDS011;6689;53.400;12.486;2024-03-02T11:34:45;43.70;;;27.80;;
13244;SDS011;6689;53.400;12.486;2024-03-02T11:37:14;43.88;;;28.35;;
13244;SDS011;6689;53.400;12.486;2024-03-02T11:39:47;42.65;;;27.58;;
13244;SDS011;6689;53.400;12.486;2024-03-02T11:42:17;44.65;;;28.20;;
13244;SDS011;6689;53.400;12.486;2024-03-02T11:44:45;44.28;;;27.67;;
13244;SDS011;6689;53.400;12.486;2024-03-02T11:47:15;44.50;;;28.00;;
13244;SDS011;6689;53.400;12.486;2024-03-02T11:49:43;40.80;;;26.10;;
13244;SDS011;6689;53.400;12.486;2024-03-02T11:52:12;45.40;;;29.50;;
13244;SDS011;6689;53.400;12.486;2024-03-02T11:54:42;38.47;;;25.90;;
13244;SDS011;6689;53.400;12.486;2024-03-02T11:57:15;40.38;;;26.20;;
13244;SDS011;6689;53.400;12.486;2024-03-02T11:59:44;63.78;;;40.00;;
13244;SDS011;6689;53.400;12.486;2024-03-02T12:02:15;44.30;;;28.27;;
13244;SDS011;6689;53.400;12.486;2024-03-02T12:04:44;38.83;;;26.90;;
13244;SDS011;6689;53.400;12.486;2024-03-02T12:07:13;35.03;;;25.15;;
13244;SDS011;6689;53.400;12.486;2024-03-02T12:09:46;34.90;;;23.92;;
13244;SDS011;6689;53.400;12.486;2024-03-02T12:12:14;37.90;;;25.35;;
13244;SDS011;6689;53.400;12.486;2024-03-02T12:14:49;34.63;;;23.90;;
13244;SDS011;6689;53.400;12.486;2024-03-02T12:17:18;34.20;;;25.17;;
13244;SDS011;6689;53.400;12.486;2024-03-02T12:19:46;36.83;;;25.77;;
13244;SDS011;6689;53.400;12.486;2024-03-02T12:22:18;33.40;;;22.98;;
13244;SDS011;6689;53.400;12.486;2024-03-02T12:24:46;35.78;;;24.13;;
13244;SDS011;6689;53.400;12.486;2024-03-02T12:27:15;33.00;;;23.77;;
13244;SDS011;6689;53.400;12.486;2024-03-02T12:29:43;33.47;;;26.13;;
13244;SDS011;6689;53.400;12.486;2024-03-02T12:32:12;32.80;;;22.50;;
13244;SDS011;6689;53.400;12.486;2024-03-02T12:34:41;38.92;;;25.02;;
13244;SDS011;6689;53.400;12.486;2024-03-02T12:37:11;32.22;;;22.65;;
13244;SDS011;6689;53.400;12.486;2024-03-02T12:39:38;33.33;;;22.88;;
13244;SDS011;6689;53.400;12.486;2024-03-02T12:42:05;29.67;;;20.50;;
13244;SDS011;6689;53.400;12.486;2024-03-02T12:44:35;29.50;;;20.55;;
13244;SDS011;6689;53.400;12.486;2024-03-02T12:47:02;31.13;;;22.17;;
13244;SDS011;6689;53.400;12.486;2024-03-02T12:49:30;31.80;;;22.48;;
13244;SDS011;6689;53.400;12.486;2024-03-02T12:51:57;31.48;;;22.52;;
13244;SDS011;6689;53.400;12.486;2024-03-02T12:54:25;25.55;;;18.45;;
13244;SDS011;6689;53.400;12.486;2024-03-02T12:56:52;24.80;;;18.33;;
13244;SDS011;6689;53.400;12.486;2024-03-02T12:59:23;26.33;;;18.90;;
13244;SDS011;6689;53.400;12.486;2024-03-02T13:01:53;31.77;;;22.42;;
13244;SDS011;6689;53.400;12.486;2024-03-02T13:04:22;33.65;;;23.40;;
13244;SDS011;6689;53.400;12.486;2024-03-02T13:06:51;39.15;;;23.98;;
13244;SDS011;6689;53.400;12.486;2024-03-02T13:09:21;30.52;;;22.20;;
13244;SDS011;6689;53.400;12.486;2024-03-02T13:11:48;30.30;;;21.35;;
13244;SDS011;6689;53.400;12.486;2024-03-02T13:14:15;39.20;;;26.25;;
13244;SDS011;6689;53.400;12.486;2024-03-02T13:16:44;71.07;;;40.60;;
13244;SDS011;6689;53.400;12.486;2024-03-02T13:19:17;53.97;;;35.15;;
13244;SDS011;6689;53.400;12.486;2024-03-02T13:21:45;66.22;;;34.75;;
13244;SDS011;6689;53.400;12.486;2024-03-02T13:24:12;32.38;;;22.85;;
13244;SDS011;6689;53.400;12.486;2024-03-02T13:26:39;39.10;;;23.02;;
13244;SDS011;6689;53.400;12.486;2024-03-02T13:29:07;30.95;;;20.95;;
13244;SDS011;6689;53.400;12.486;2024-03-02T13:31:34;33.20;;;20.92;;
13244;SDS011;6689;53.400;12.486;2024-03-02T13:34:03;29.17;;;22.23;;
13244;SDS011;6689;53.400;12.486;2024-03-02T13:36:32;31.75;;;22.08;;
13244;SDS011;6689;53.400;12.486;2024-03-02T13:38:59;32.95;;;23.63;;
13244;SDS011;6689;53.400;12.486;2024-03-02T13:41:27;35.58;;;24.58;;
13244;SDS011;6689;53.400;12.486;2024-03-02T13:43:55;34.78;;;23.08;;
13244;SDS011;6689;53.400;12.486;2024-03-02T13:46:22;26.45;;;19.88;;
13244;SDS011;6689;53.400;12.486;2024-03-02T13:48:50;31.48;;;22.13;;
13244;SDS011;6689;53.400;12.486;2024-03-02T13:51:17;25.02;;;18.40;;
13244;SDS011;6689;53.400;12.486;2024-03-02T13:53:46;46.40;;;28.20;;
13244;SDS011;6689;53.400;12.486;2024-03-02T13:56:14;36.15;;;22.52;;
13244;SDS011;6689;53.400;12.486;2024-03-02T13:58:42;29.52;;;18.77;;
13244;SDS011;6689;53.400;12.486;2024-03-02T14:01:11;30.40;;;20.08;;
13244;SDS011;6689;53.400;12.486;2024-03-02T14:03:39;24.17;;;17.70;;
13244;SDS011;6689;53.400;12.486;2024-03-02T14:06:06;24.92;;;17.52;;
13244;SDS011;6689;53.400;12.486;2024-03-02T14:08:33;24.40;;;18.23;;
13244;SDS011;6689;53.400;12.486;2024-03-02T14:11:02;24.45;;;18.48;;
13244;SDS011;6689;53.400;12.486;2024-03-02T14:13:30;21.20;;;15.40;;
13244;SDS011;6689;53.400;12.486;2024-03-02T14:15:58;21.58;;;16.05;;
13244;SDS011;6689;53.400;12.486;2024-03-02T14:18:28;19.95;;;15.15;;
13244;SDS011;6689;53.400;12.486;2024-03-02T14:20:55;21.27;;;15.85;;
13244;SDS011;6689;53.400;12.486;2024-03-02T14:23:23;20.13;;;15.40;;
13244;SDS011;6689;53.400;12.486;2024-03-02T14:25:53;24.55;;;17.20;;
13244;SDS011;6689;53.400;12.486;2024-03-02T14:28:23;21.17;;;16.08;;
13244;SDS011;6689;53.400;12.486;2024-03-02T14:30:51;20.35;;;15.15;;
13244;SDS011;6689;53.400;12.486;2024-03-02T14:33:18;22.73;;;15.75;;
13244;SDS011;6689;53.400;12.486;2024-03-02T14:35:46;18.55;;;14.23;;